createdAt,value
2023-04-14T00:01:16.659Z,6.30
2023-04-14T00:04:05.317Z,6.39
2023-04-14T00:06:57.051Z,6.40
2023-04-14T00:09:46.790Z,6.13
2023-04-14T00:12:35.218Z,6.19
2023-04-14T00:15:23.725Z,6.18
2023-04-14T00:18:12.107Z,6.22
2023-04-14T00:21:01.133Z,6.20
2023-04-14T00:23:49.599Z,6.07
2023-04-14T00:26:39.371Z,6.08
2023-04-14T00:29:27.781Z,6.04
2023-04-14T00:32:16.812Z,6.04
2023-04-14T00:35:05.816Z,6.09
2023-04-14T00:37:56.603Z,6.10
2023-04-14T00:40:45.101Z,6.13
2023-04-14T00:43:34.812Z,6.16
2023-04-14T00:46:23.623Z,6.08
2023-04-14T00:49:13.709Z,5.88
2023-04-14T00:52:02.738Z,5.92
2023-04-14T00:54:51.321Z,6.01
2023-04-14T00:57:40.098Z,6.02
2023-04-14T01:00:29.849Z,6.13
2023-04-14T01:03:18.337Z,6.06
2023-04-14T01:06:07.166Z,6.10
2023-04-14T01:08:57.745Z,6.14
2023-04-14T01:11:51.903Z,6.19
2023-04-14T01:14:43.412Z,6.18
2023-04-14T01:17:37.183Z,6.08
2023-04-14T01:20:32.331Z,6.04
2023-04-14T01:23:24.986Z,6.00
2023-04-14T01:26:20.816Z,5.90
2023-04-14T01:29:35.308Z,5.96
2023-04-14T01:32:27.120Z,5.89
2023-04-14T01:35:20.822Z,5.89
2023-04-14T01:38:13.880Z,6.00
2023-04-14T01:41:06.730Z,6.00
2023-04-14T01:43:55.848Z,5.90
2023-04-14T01:46:45.241Z,5.89
2023-04-14T01:49:37.821Z,5.97
2023-04-14T01:52:27.903Z,6.11
2023-04-14T01:55:18.717Z,6.25
2023-04-14T01:58:08.624Z,6.33
2023-04-14T02:00:58.786Z,6.38
2023-04-14T02:03:48.201Z,6.47
2023-04-14T02:06:38.926Z,6.44
2023-04-14T02:09:27.882Z,6.46
2023-04-14T02:12:18.109Z,6.48
2023-04-14T02:15:08.311Z,6.42
2023-04-14T02:17:58.899Z,6.27
2023-04-14T02:20:48.194Z,6.23
2023-04-14T02:23:37.961Z,6.21
2023-04-14T02:26:29.066Z,6.15
2023-04-14T02:29:22.057Z,6.02
2023-04-14T02:32:15.938Z,6.22
2023-04-14T02:35:09.465Z,6.36
2023-04-14T02:38:06.914Z,6.40
2023-04-14T02:40:56.716Z,6.45
2023-04-14T02:43:48.715Z,6.38
2023-04-14T02:46:43.771Z,6.35
2023-04-14T02:49:34.344Z,6.36
2023-04-14T02:52:24.658Z,6.37
2023-04-14T02:55:15.731Z,6.28
2023-04-14T02:58:06.194Z,6.36
2023-04-14T03:00:59.149Z,6.22
2023-04-14T03:03:48.053Z,6.18
2023-04-14T03:06:39.810Z,6.21
2023-04-14T03:09:28.543Z,6.25
2023-04-14T03:12:18.310Z,6.21
2023-04-14T03:15:09.172Z,6.27
2023-04-14T03:17:58.548Z,6.29
2023-04-14T03:20:50.211Z,6.24
2023-04-14T03:23:39.768Z,6.32
2023-04-14T03:26:31.053Z,6.36
2023-04-14T03:29:21.731Z,6.33
2023-04-14T03:32:12.447Z,6.36
2023-04-14T03:35:03.418Z,6.27
2023-04-14T03:37:53.171Z,6.04
2023-04-14T03:40:44.427Z,5.85
2023-04-14T03:43:34.370Z,5.68
2023-04-14T03:46:28.939Z,5.62
2023-04-14T03:49:20.975Z,5.68
2023-04-14T03:52:13.299Z,5.66
2023-04-14T03:55:06.443Z,5.61
2023-04-14T03:57:57.698Z,5.66
2023-04-14T04:00:47.703Z,5.89
2023-04-14T04:03:38.412Z,6.04
2023-04-14T04:06:28.871Z,6.01
2023-04-14T04:09:18.111Z,5.88
2023-04-14T04:12:07.440Z,5.93
2023-04-14T04:14:56.454Z,5.86
2023-04-14T04:17:45.503Z,6.03
2023-04-14T04:20:37.010Z,5.93
2023-04-14T04:23:27.490Z,6.10
2023-04-14T04:26:17.090Z,6.15
2023-04-14T04:29:05.907Z,6.09
2023-04-14T04:31:55.685Z,6.17
2023-04-14T04:34:45.549Z,6.17
2023-04-14T04:37:34.649Z,6.22
2023-04-14T04:40:24.715Z,6.26
2023-04-14T04:43:13.848Z,6.21
2023-04-14T04:46:26.649Z,6.19
2023-04-14T04:49:15.071Z,6.26
2023-04-14T04:52:03.455Z,6.28
2023-04-14T04:54:52.593Z,6.24
2023-04-14T04:57:42.383Z,6.06
2023-04-14T05:00:30.708Z,5.93
2023-04-14T05:03:19.067Z,6.02
2023-04-14T05:06:07.619Z,6.07
2023-04-14T05:08:56.549Z,6.16
2023-04-14T05:11:44.912Z,5.98
2023-04-14T05:14:34.663Z,6.10
2023-04-14T05:17:23.199Z,5.87
2023-04-14T05:20:12.541Z,5.90
2023-04-14T05:23:00.915Z,5.96
2023-04-14T05:25:49.281Z,6.06
2023-04-14T05:28:37.615Z,6.05
2023-04-14T05:31:27.431Z,6.11
2023-04-14T05:34:16.121Z,6.23
2023-04-14T05:37:04.466Z,6.30
2023-04-14T05:39:52.815Z,6.40
2023-04-14T05:42:41.932Z,6.18
2023-04-14T05:45:30.320Z,5.98
2023-04-14T05:48:20.057Z,6.05
2023-04-14T05:51:08.341Z,5.99
2023-04-14T05:53:56.940Z,6.25
2023-04-14T05:56:45.336Z,6.26
2023-04-14T05:59:33.652Z,6.37
2023-04-14T06:02:22.173Z,6.44
2023-04-14T06:05:12.932Z,6.56
2023-04-14T06:08:01.464Z,6.53
2023-04-14T06:10:49.839Z,6.65
2023-04-14T06:13:38.187Z,6.71
2023-04-14T06:16:26.534Z,6.73
2023-04-14T06:19:14.841Z,6.57
2023-04-14T06:22:05.593Z,6.55
2023-04-14T06:24:54.000Z,6.54
2023-04-14T06:27:42.337Z,6.64
2023-04-14T06:30:32.287Z,6.70
2023-04-14T06:33:20.605Z,6.65
2023-04-14T06:36:09.428Z,6.57
2023-04-14T06:38:59.564Z,6.69
2023-04-14T06:41:48.190Z,6.70
2023-04-14T06:44:36.547Z,6.74
2023-04-14T06:47:25.513Z,6.71
2023-04-14T06:50:14.510Z,6.75
2023-04-14T06:53:03.176Z,6.66
2023-04-14T06:55:59.513Z,6.75
2023-04-14T06:58:48.426Z,6.74
2023-04-14T07:01:55.234Z,6.82
2023-04-14T07:05:02.456Z,6.82
2023-04-14T07:07:51.079Z,6.80
2023-04-14T07:10:39.522Z,6.72
2023-04-14T07:13:29.411Z,6.73
2023-04-14T07:16:17.937Z,6.56
2023-04-14T07:19:06.353Z,6.74
2023-04-14T07:21:54.707Z,6.69
2023-04-14T07:24:43.093Z,6.73
2023-04-14T07:27:32.012Z,6.72
2023-04-14T07:30:22.274Z,6.89
2023-04-14T07:33:10.700Z,6.91
2023-04-14T07:36:03.559Z,6.85
2023-04-14T07:38:52.478Z,6.88
2023-04-14T07:41:41.306Z,6.76
2023-04-14T07:44:29.699Z,6.70
2023-04-14T07:47:19.552Z,6.84
2023-04-14T07:50:08.959Z,6.94
2023-04-14T07:52:57.318Z,6.81
2023-04-14T07:55:45.772Z,6.94
2023-04-14T07:58:34.200Z,6.89
2023-04-14T08:01:22.709Z,7.04
2023-04-14T08:04:12.518Z,7.18
2023-04-14T08:07:01.515Z,7.06
2023-04-14T08:09:50.658Z,7.00
2023-04-14T08:12:39.064Z,6.93
2023-04-14T08:15:27.672Z,6.92
2023-04-14T08:18:16.389Z,7.03
2023-04-14T08:21:06.913Z,7.15
2023-04-14T08:23:55.260Z,7.15
2023-04-14T08:26:43.627Z,7.13
2023-04-14T08:29:31.981Z,7.22
2023-04-14T08:32:20.440Z,7.11
2023-04-14T08:35:35.927Z,7.08
2023-04-14T08:38:20.970Z,7.23
2023-04-14T08:41:10.011Z,7.02
2023-04-14T08:43:58.426Z,7.04
2023-04-14T08:46:46.955Z,7.10
2023-04-14T08:49:42.133Z,7.08
2023-04-14T08:52:32.119Z,7.06
2023-04-14T08:55:22.371Z,7.12
2023-04-14T08:58:11.584Z,7.05
2023-04-14T09:01:00.442Z,6.87
2023-04-14T09:03:49.724Z,7.01
2023-04-14T09:06:38.214Z,7.08
2023-04-14T09:09:26.828Z,7.10
2023-04-14T09:12:18.166Z,7.01
2023-04-14T09:15:07.782Z,7.07
2023-04-14T09:17:56.564Z,7.12
2023-04-14T09:20:47.955Z,7.17
2023-04-14T09:23:56.411Z,7.18
2023-04-14T09:26:44.805Z,7.23
2023-04-14T09:29:36.537Z,7.47
2023-04-14T09:32:24.888Z,7.64
2023-04-14T09:35:14.292Z,7.65
2023-04-14T09:38:03.014Z,7.77
2023-04-14T09:40:54.859Z,7.79
2023-04-14T09:43:44.161Z,7.64
2023-04-14T09:46:33.930Z,7.68
2023-04-14T09:49:22.372Z,7.81
2023-04-14T09:52:11.334Z,7.56
2023-04-14T09:55:00.028Z,7.70
2023-04-14T09:57:48.503Z,7.73
2023-04-14T10:00:37.010Z,7.78
2023-04-14T10:03:38.741Z,7.80
2023-04-14T10:06:27.613Z,7.88
2023-04-14T10:09:22.151Z,7.91
2023-04-14T10:12:13.256Z,8.05
2023-04-14T10:15:01.651Z,8.17
2023-04-14T10:17:50.069Z,8.25
2023-04-14T10:20:39.823Z,8.23
2023-04-14T10:23:28.561Z,8.11
2023-04-14T10:26:17.207Z,8.15
2023-04-14T10:29:05.837Z,8.09
2023-04-14T10:31:56.652Z,8.30
2023-04-14T10:34:56.292Z,8.30
2023-04-14T10:37:53.696Z,8.35
2023-04-14T10:40:48.563Z,8.39
2023-04-14T10:43:38.016Z,8.44
2023-04-14T10:46:26.660Z,8.52
2023-04-14T10:49:15.120Z,8.51
2023-04-14T10:52:06.379Z,8.48
2023-04-14T10:55:00.984Z,8.51
2023-04-14T10:57:49.578Z,8.53
2023-04-14T11:00:39.245Z,8.54
2023-04-14T11:03:32.428Z,8.52
2023-04-14T11:06:49.714Z,8.66
2023-04-14T11:09:38.160Z,8.81
2023-04-14T11:12:28.397Z,9.00
2023-04-14T11:15:17.281Z,9.06
2023-04-14T11:18:13.167Z,9.01
2023-04-14T11:21:06.226Z,8.94
2023-04-14T11:23:54.589Z,9.13
2023-04-14T11:26:44.218Z,9.03
2023-04-14T11:29:34.453Z,8.85
2023-04-14T11:32:22.962Z,8.88
2023-04-14T11:35:12.151Z,8.89
2023-04-14T11:38:01.828Z,9.12
2023-04-14T11:40:50.629Z,9.05
2023-04-14T11:43:39.216Z,9.19
2023-04-14T11:46:29.240Z,9.24
2023-04-14T11:49:17.701Z,9.38
2023-04-14T11:52:07.808Z,9.35
2023-04-14T11:54:56.335Z,9.38
2023-04-14T11:57:45.869Z,9.32
2023-04-14T12:00:34.396Z,9.36
2023-04-14T12:03:27.960Z,9.25
2023-04-14T12:06:16.598Z,9.37
2023-04-14T12:09:09.861Z,9.31
2023-04-14T12:11:58.290Z,9.35
2023-04-14T12:14:48.150Z,9.37
2023-04-14T12:17:37.284Z,9.15
2023-04-14T12:20:27.469Z,9.40
2023-04-14T12:23:16.828Z,9.49
2023-04-14T12:26:10.707Z,9.34
2023-04-14T12:28:59.191Z,9.30
2023-04-14T12:31:47.629Z,9.06
2023-04-14T12:34:36.016Z,9.12
2023-04-14T12:37:29.409Z,9.04
2023-04-14T12:40:18.620Z,9.22
2023-04-14T12:43:07.249Z,9.26
2023-04-14T12:45:58.272Z,9.43
2023-04-14T12:48:48.395Z,9.57
2023-04-14T12:51:39.894Z,9.78
2023-04-14T12:54:47.422Z,9.95
2023-04-14T12:57:36.625Z,10.09
2023-04-14T13:00:27.199Z,10.08
2023-04-14T13:03:15.671Z,10.05
2023-04-14T13:06:04.073Z,10.07
2023-04-14T13:08:54.079Z,10.02
2023-04-14T13:11:44.310Z,10.20
2023-04-14T13:14:32.754Z,10.09
2023-04-14T13:17:21.194Z,10.30
2023-04-14T13:20:11.202Z,10.45
2023-04-14T13:22:59.577Z,10.43
2023-04-14T13:25:48.415Z,10.62
2023-04-14T13:28:38.216Z,10.46
2023-04-14T13:31:26.828Z,10.59
2023-04-14T13:34:15.480Z,10.48
2023-04-14T13:37:03.860Z,10.61
2023-04-14T13:39:52.202Z,10.61
2023-04-14T13:42:40.627Z,10.72
2023-04-14T13:45:30.778Z,10.69
2023-04-14T13:48:19.279Z,10.91
2023-04-14T13:51:07.848Z,10.95
2023-04-14T13:53:56.581Z,10.90
2023-04-14T13:56:44.957Z,10.80
2023-04-14T13:59:33.318Z,10.46
2023-04-14T14:02:23.816Z,10.38
2023-04-14T14:05:12.584Z,10.36
2023-04-14T14:08:00.948Z,10.32
2023-04-14T14:10:49.330Z,10.51
2023-04-14T14:13:39.483Z,10.75
2023-04-14T14:19:20.694Z,10.75
2023-04-14T14:22:09.215Z,10.86
2023-04-14T14:25:10.829Z,10.77
2023-04-14T14:28:03.950Z,10.99
2023-04-14T14:30:52.336Z,11.16
2023-04-14T14:33:40.738Z,11.28
2023-04-14T14:36:30.677Z,11.33
2023-04-14T14:39:19.189Z,11.34
2023-04-14T14:42:07.518Z,11.43
2023-04-14T14:44:55.966Z,11.49
2023-04-14T14:47:46.280Z,11.59
2023-04-14T14:50:34.703Z,11.60
2023-04-14T14:53:24.396Z,11.61
2023-04-14T14:56:12.728Z,11.77
2023-04-14T14:59:01.423Z,11.82
2023-04-14T15:01:49.852Z,11.83
2023-04-14T15:04:38.961Z,11.85
2023-04-14T15:07:27.376Z,11.66
2023-04-14T15:10:17.406Z,11.77
2023-04-14T15:13:06.612Z,11.65
2023-04-14T15:15:56.063Z,11.71
2023-04-14T15:18:44.878Z,11.64
2023-04-14T15:21:33.433Z,11.72
2023-04-14T15:24:21.915Z,11.66
2023-04-14T15:27:11.630Z,11.59
2023-04-14T15:30:00.108Z,11.66
2023-04-14T15:32:48.498Z,11.54
2023-04-14T15:35:38.642Z,11.35
2023-04-14T15:38:27.158Z,11.61
2023-04-14T15:41:15.533Z,11.62
2023-04-14T15:44:05.855Z,11.57
2023-04-14T15:46:54.395Z,11.56
2023-04-14T15:49:42.795Z,11.65
2023-04-14T15:52:36.826Z,11.59
2023-04-14T15:55:25.399Z,11.72
2023-04-14T15:58:13.759Z,11.67
2023-04-14T16:01:07.595Z,11.58
2023-04-14T16:03:56.002Z,11.26
2023-04-14T16:06:46.115Z,11.04
2023-04-14T16:09:35.236Z,10.87
2023-04-14T16:12:24.220Z,10.81
2023-04-14T16:15:12.996Z,10.57
2023-04-14T16:18:02.994Z,10.49
2023-04-14T16:20:51.438Z,10.38
2023-04-14T16:23:39.756Z,10.54
2023-04-14T16:26:28.134Z,10.30
2023-04-14T16:29:16.745Z,10.12
2023-04-14T16:32:05.190Z,10.23
2023-04-14T16:34:55.028Z,10.09
2023-04-14T16:37:43.345Z,9.46
2023-04-14T16:40:32.018Z,9.27
2023-04-14T16:43:20.492Z,9.58
2023-04-14T16:46:08.958Z,9.70
2023-04-14T16:48:57.334Z,9.81
2023-04-14T16:51:47.173Z,9.92
2023-04-14T16:54:36.738Z,10.03
2023-04-14T16:57:25.136Z,9.93
2023-04-14T17:00:14.198Z,9.65
2023-04-14T17:03:02.781Z,9.80
2023-04-14T17:05:51.522Z,9.89
2023-04-14T17:08:41.518Z,9.94
2023-04-14T17:11:29.899Z,9.98
2023-04-14T17:14:18.353Z,10.01
2023-04-14T17:17:07.300Z,9.94
2023-04-14T17:19:56.950Z,9.95
2023-04-14T17:22:45.541Z,9.59
2023-04-14T17:25:35.692Z,9.72
2023-04-14T17:28:24.496Z,9.69
2023-04-14T17:31:14.150Z,9.56
2023-04-14T17:34:03.136Z,9.38
2023-04-14T17:36:51.972Z,9.51
2023-04-14T17:39:40.359Z,9.08
2023-04-14T17:42:30.972Z,9.27
2023-04-14T17:45:23.063Z,9.32
2023-04-14T17:48:11.415Z,9.30
2023-04-14T17:51:00.158Z,9.36
2023-04-14T17:53:49.263Z,9.42
2023-04-14T17:56:37.732Z,9.30
2023-04-14T17:59:27.413Z,9.12
2023-04-14T18:02:16.349Z,8.90
2023-04-14T18:05:05.506Z,8.74
2023-04-14T18:07:55.286Z,8.80
2023-04-14T18:10:45.538Z,8.80
2023-04-14T18:13:34.717Z,8.60
2023-04-14T18:16:24.572Z,8.66
2023-04-14T18:19:13.706Z,8.53
2023-04-14T18:22:03.285Z,8.23
2023-04-14T18:24:52.052Z,8.43
2023-04-14T18:30:32.060Z,8.58
2023-04-14T18:33:21.838Z,8.59
2023-04-14T18:36:10.289Z,8.60
2023-04-14T18:38:59.896Z,8.70
2023-04-14T18:41:48.423Z,8.79
2023-04-14T18:44:36.878Z,8.78
2023-04-14T18:47:25.408Z,8.76
2023-04-14T18:50:15.377Z,8.68
2023-04-14T18:53:03.714Z,8.62
2023-04-14T18:55:52.579Z,8.63
2023-04-14T18:58:41.080Z,8.55
2023-04-14T19:01:29.602Z,8.53
2023-04-14T19:04:17.976Z,8.59
2023-04-14T19:07:07.753Z,8.61
2023-04-14T19:09:56.083Z,8.62
2023-04-14T19:12:44.459Z,8.67
2023-04-14T19:15:32.874Z,8.64
2023-04-14T19:18:21.196Z,8.24
2023-04-14T19:21:09.680Z,7.97
2023-04-14T19:23:59.706Z,7.87
2023-04-14T19:26:48.047Z,7.87
2023-04-14T19:29:37.049Z,7.87
2023-04-14T19:32:25.594Z,7.79
2023-04-14T19:35:13.943Z,7.78
2023-04-14T19:38:02.547Z,7.76
2023-04-14T19:40:53.860Z,7.90
2023-04-14T19:43:42.277Z,7.98
2023-04-14T19:46:30.675Z,8.00
2023-04-14T19:49:19.153Z,8.12
2023-04-14T19:52:07.538Z,8.22
2023-04-14T19:54:56.878Z,8.24
2023-04-14T19:57:47.049Z,8.23
2023-04-14T20:00:40.862Z,8.24
2023-04-14T20:03:29.642Z,8.25
2023-04-14T20:06:19.758Z,8.21
2023-04-14T20:09:08.085Z,8.11
2023-04-14T20:11:56.447Z,8.13
2023-04-14T20:14:46.152Z,8.10
2023-04-14T20:17:35.072Z,7.90
2023-04-14T20:20:23.789Z,7.99
2023-04-14T20:23:12.256Z,8.00
2023-04-14T20:26:01.447Z,7.92
2023-04-14T20:28:50.372Z,7.98
2023-04-14T20:31:41.649Z,8.01
2023-04-14T20:34:30.041Z,7.88
2023-04-14T20:37:18.995Z,7.87
2023-04-14T20:40:08.775Z,7.83
2023-04-14T20:42:57.079Z,7.76
2023-04-14T20:45:45.688Z,7.64
2023-04-14T20:48:35.448Z,7.60
2023-04-14T20:51:24.012Z,7.67
2023-04-14T20:54:12.377Z,7.63
2023-04-14T20:57:03.558Z,7.47
2023-04-14T20:59:52.029Z,7.54
2023-04-14T21:02:40.509Z,7.61
2023-04-14T21:05:30.331Z,7.46
2023-04-14T21:08:19.494Z,7.44
2023-04-14T21:11:16.742Z,7.39
2023-04-14T21:15:31.268Z,7.54
2023-04-14T21:17:14.841Z,7.50
2023-04-14T21:20:03.925Z,7.50
2023-04-14T21:22:54.801Z,7.62
2023-04-14T21:25:43.331Z,7.61
2023-04-14T21:28:32.471Z,7.39
2023-04-14T21:31:21.102Z,7.32
2023-04-14T21:34:09.477Z,7.31
2023-04-14T21:36:58.254Z,7.30
2023-04-14T21:39:47.985Z,7.33
2023-04-14T21:42:36.377Z,7.17
2023-04-14T21:45:26.708Z,7.18
2023-04-14T21:48:15.116Z,7.12
2023-04-14T21:51:04.095Z,7.16
2023-04-14T21:53:53.170Z,7.21
2023-04-14T21:56:42.887Z,7.23
2023-04-14T21:59:31.342Z,7.20
2023-04-14T22:02:20.505Z,7.22
2023-04-14T22:05:09.808Z,7.21
2023-04-14T22:07:58.157Z,7.15
2023-04-14T22:10:47.434Z,7.16
2023-04-14T22:13:37.162Z,7.06
2023-04-14T22:16:25.613Z,6.94
2023-04-14T22:19:14.245Z,6.93
2023-04-14T22:22:02.601Z,6.96
2023-04-14T22:24:51.730Z,6.92
2023-04-14T22:27:40.073Z,6.77
2023-04-14T22:30:29.968Z,6.78
2023-04-14T22:33:18.347Z,6.75
2023-04-14T22:36:07.596Z,6.76
2023-04-14T22:38:55.927Z,6.73
2023-04-14T22:41:45.429Z,6.63
2023-04-14T22:44:33.784Z,6.73
2023-04-14T22:47:23.551Z,6.78
2023-04-14T22:50:12.175Z,6.87
2023-04-14T22:53:01.933Z,6.90
2023-04-14T22:55:50.317Z,6.72
2023-04-14T22:58:39.800Z,6.77
2023-04-14T23:01:29.269Z,6.77
2023-04-14T23:04:19.058Z,6.85
2023-04-14T23:07:07.524Z,6.93
2023-04-14T23:09:55.901Z,6.95
2023-04-14T23:12:44.242Z,7.05
2023-04-14T23:15:32.734Z,7.04
2023-04-14T23:18:21.221Z,7.08
2023-04-14T23:21:11.768Z,7.13
2023-04-14T23:24:00.190Z,7.12
2023-04-14T23:26:48.509Z,7.08
2023-04-14T23:29:37.196Z,7.03
2023-04-14T23:32:25.645Z,6.82
2023-04-14T23:35:14.025Z,6.86
2023-04-14T23:38:04.140Z,6.90
2023-04-14T23:40:58.650Z,6.84
2023-04-14T23:43:49.149Z,6.90
2023-04-14T23:46:37.701Z,6.77
2023-04-14T23:49:33.279Z,6.60
2023-04-14T23:52:23.913Z,6.45
2023-04-14T23:55:13.663Z,6.51
